createdAt,value
2023-02-22T00:02:27.417Z,4.78
2023-02-22T00:04:58.093Z,4.78
2023-02-22T00:07:26.573Z,4.38
2023-02-22T00:09:54.993Z,4.13
2023-02-22T00:12:23.355Z,4.78
2023-02-22T00:14:52.178Z,4.45
2023-02-22T00:17:20.759Z,4.74
2023-02-22T00:19:50.902Z,4.38
2023-02-22T00:22:20.876Z,4.86
2023-02-22T00:24:50.463Z,4.79
2023-02-22T00:27:19.074Z,4.60
2023-02-22T00:29:49.876Z,4.25
2023-02-22T00:32:18.782Z,4.83
2023-02-22T00:34:48.368Z,4.76
2023-02-22T00:37:17.713Z,4.81
2023-02-22T00:39:50.611Z,4.67
2023-02-22T00:42:20.507Z,4.56
2023-02-22T00:44:49.093Z,4.64
2023-02-22T00:47:17.934Z,4.67
2023-02-22T00:49:46.171Z,4.34
2023-02-22T00:52:15.508Z,4.33
2023-02-22T00:54:43.832Z,4.58
2023-02-22T00:57:14.174Z,4.21
2023-02-22T00:59:42.289Z,4.07
2023-02-22T01:02:11.470Z,4.45
2023-02-22T01:04:40.236Z,4.52
2023-02-22T01:07:08.679Z,3.84
2023-02-22T01:09:39.853Z,4.34
2023-02-22T01:12:08.652Z,4.25
2023-02-22T01:14:40.635Z,4.21
2023-02-22T01:17:09.224Z,4.43
2023-02-22T01:19:37.771Z,4.56
2023-02-22T01:22:14.301Z,4.46
2023-02-22T01:24:45.182Z,4.52
2023-02-22T01:27:13.530Z,4.29
2023-02-22T01:29:43.785Z,4.49
2023-02-22T01:32:12.299Z,4.11
2023-02-22T01:34:41.966Z,4.10
2023-02-22T01:37:10.273Z,4.13
2023-02-22T01:39:38.410Z,4.39
2023-02-22T01:42:09.822Z,3.71
2023-02-22T01:44:41.812Z,4.44
2023-02-22T01:47:11.773Z,4.27
2023-02-22T01:49:44.390Z,4.31
2023-02-22T01:52:16.652Z,4.30
2023-02-22T01:54:49.113Z,4.24
2023-02-22T01:57:24.502Z,4.21
2023-02-22T01:59:56.975Z,4.04
2023-02-22T02:02:27.489Z,4.22
2023-02-22T02:04:57.944Z,4.45
2023-02-22T02:07:31.190Z,4.26
2023-02-22T02:10:01.478Z,4.45
2023-02-22T02:12:33.243Z,4.16
2023-02-22T02:15:20.832Z,4.53
2023-02-22T02:17:52.626Z,4.50
2023-02-22T02:20:25.995Z,4.34
2023-02-22T02:23:02.161Z,4.19
2023-02-22T02:26:05.451Z,3.94
2023-02-22T02:29:01.754Z,4.20
2023-02-22T02:32:15.396Z,4.19
2023-02-22T02:34:52.349Z,4.27
2023-02-22T02:37:28.892Z,4.39
2023-02-22T02:40:11.565Z,4.35
2023-02-22T02:42:46.271Z,4.24
2023-02-22T02:45:19.894Z,4.27
2023-02-22T02:47:54.390Z,4.25
2023-02-22T02:50:28.068Z,3.83
2023-02-22T02:53:00.901Z,3.99
2023-02-22T02:55:30.657Z,3.75
2023-02-22T02:57:59.478Z,4.01
2023-02-22T03:00:39.470Z,3.98
2023-02-22T03:03:33.540Z,4.07
2023-02-22T03:06:20.153Z,3.47
2023-02-22T03:08:55.395Z,4.00
2023-02-22T03:11:29.364Z,3.87
2023-02-22T03:14:08.263Z,3.64
2023-02-22T03:16:46.337Z,3.91
2023-02-22T03:19:23.334Z,4.16
2023-02-22T03:21:58.874Z,3.81
2023-02-22T03:24:32.125Z,4.22
2023-02-22T03:27:09.649Z,4.10
2023-02-22T03:29:46.084Z,3.94
2023-02-22T03:32:22.842Z,4.01
2023-02-22T03:34:59.617Z,3.67
2023-02-22T03:37:31.877Z,3.81
2023-02-22T03:40:02.595Z,3.84
2023-02-22T03:42:33.597Z,3.93
2023-02-22T03:45:05.337Z,3.88
2023-02-22T03:47:40.899Z,4.02
2023-02-22T03:50:15.467Z,3.73
2023-02-22T03:52:46.084Z,2.97
2023-02-22T03:55:17.885Z,3.60
2023-02-22T03:57:50.797Z,3.84
2023-02-22T04:00:23.271Z,3.61
2023-02-22T04:02:52.598Z,3.54
2023-02-22T04:05:24.991Z,2.96
2023-02-22T04:07:55.169Z,3.63
2023-02-22T04:10:26.047Z,3.57
2023-02-22T04:12:55.590Z,3.60
2023-02-22T04:15:25.846Z,3.73
2023-02-22T04:17:54.097Z,3.52
2023-02-22T04:20:25.854Z,3.67
2023-02-22T04:22:55.079Z,3.72
2023-02-22T04:25:24.843Z,3.52
2023-02-22T04:27:53.897Z,3.27
2023-02-22T04:30:23.783Z,3.41
2023-02-22T04:32:59.142Z,3.58
2023-02-22T04:35:29.301Z,3.14
2023-02-22T04:37:58.260Z,3.67
2023-02-22T04:40:26.588Z,3.43
2023-02-22T04:42:54.949Z,3.62
2023-02-22T04:45:23.471Z,3.74
2023-02-22T04:47:51.732Z,3.54
2023-02-22T04:50:20.374Z,3.57
2023-02-22T04:52:50.406Z,3.33
2023-02-22T04:55:19.206Z,3.62
2023-02-22T04:57:47.536Z,3.33
2023-02-22T05:00:19.136Z,3.33
2023-02-22T05:02:48.002Z,3.48
2023-02-22T05:05:17.532Z,3.73
2023-02-22T05:07:46.325Z,3.72
2023-02-22T05:10:17.167Z,3.56
2023-02-22T05:12:55.572Z,3.66
2023-02-22T05:15:25.564Z,3.65
2023-02-22T05:17:55.713Z,3.82
2023-02-22T05:20:27.979Z,3.75
2023-02-22T05:22:57.615Z,3.85
2023-02-22T05:25:28.891Z,3.20
2023-02-22T05:28:00.156Z,3.91
2023-02-22T05:30:31.455Z,3.82
2023-02-22T05:33:00.564Z,3.68
2023-02-22T05:35:30.882Z,3.62
2023-02-22T05:38:02.340Z,3.65
2023-02-22T05:40:33.292Z,3.72
2023-02-22T05:43:03.133Z,2.67
2023-02-22T05:45:32.317Z,3.10
2023-02-22T05:48:00.960Z,3.68
2023-02-22T05:50:29.985Z,3.56
2023-02-22T05:52:58.930Z,3.78
2023-02-22T05:55:27.317Z,3.80
2023-02-22T05:57:57.306Z,3.63
2023-02-22T06:00:28.417Z,3.44
2023-02-22T06:02:58.513Z,3.80
2023-02-22T06:05:27.557Z,3.71
2023-02-22T06:07:56.312Z,3.81
2023-02-22T06:10:24.626Z,3.91
2023-02-22T06:12:59.320Z,3.64
2023-02-22T06:15:34.929Z,3.77
2023-02-22T06:18:12.855Z,3.72
2023-02-22T06:20:41.481Z,3.72
2023-02-22T06:23:09.870Z,3.79
2023-02-22T06:25:38.357Z,3.49
2023-02-22T06:28:08.370Z,3.36
2023-02-22T06:30:37.054Z,3.61
2023-02-22T06:33:06.124Z,3.61
2023-02-22T06:35:34.923Z,3.70
2023-02-22T06:38:03.749Z,3.89
2023-02-22T06:40:32.605Z,4.02
2023-02-22T06:43:03.761Z,3.06
2023-02-22T06:45:34.075Z,4.14
2023-02-22T06:48:05.766Z,4.10
2023-02-22T06:50:35.956Z,3.31
2023-02-22T06:53:04.838Z,4.16
2023-02-22T06:55:34.678Z,3.96
2023-02-22T06:58:04.988Z,4.32
2023-02-22T07:00:35.500Z,4.22
2023-02-22T07:03:06.398Z,4.18
2023-02-22T07:05:34.657Z,4.15
2023-02-22T07:08:07.838Z,4.37
2023-02-22T07:10:37.941Z,4.35
2023-02-22T07:13:07.973Z,4.41
2023-02-22T07:15:38.142Z,4.53
2023-02-22T07:18:07.422Z,3.94
2023-02-22T07:20:38.472Z,4.44
2023-02-22T07:23:07.655Z,3.91
2023-02-22T07:25:36.198Z,3.07
2023-02-22T07:28:04.787Z,4.13
2023-02-22T07:30:34.954Z,4.22
2023-02-22T07:33:11.023Z,4.32
2023-02-22T07:35:41.792Z,4.52
2023-02-22T07:38:10.561Z,4.59
2023-02-22T07:40:41.608Z,3.78
2023-02-22T07:43:19.584Z,3.52
2023-02-22T07:45:51.000Z,3.56
2023-02-22T07:48:31.491Z,4.61
2023-02-22T07:51:00.104Z,4.47
2023-02-22T07:53:36.705Z,4.55
2023-02-22T07:56:09.958Z,4.59
2023-02-22T07:58:38.538Z,4.81
2023-02-22T08:01:07.405Z,4.69
2023-02-22T08:03:38.198Z,4.75
2023-02-22T08:06:08.240Z,4.84
2023-02-22T08:08:36.727Z,4.91
2023-02-22T08:11:05.746Z,4.46
2023-02-22T08:13:34.169Z,4.73
2023-02-22T08:16:02.782Z,4.70
2023-02-22T08:18:30.818Z,4.81
2023-02-22T08:21:00.533Z,4.51
2023-02-22T08:23:38.983Z,4.41
2023-02-22T08:29:33.552Z,5.14
2023-02-22T08:32:02.035Z,5.17
2023-02-22T08:34:30.637Z,5.15
2023-02-22T08:36:59.055Z,4.96
2023-02-22T08:39:29.086Z,5.25
2023-02-22T08:41:57.628Z,5.31
2023-02-22T08:44:27.678Z,5.37
2023-02-22T08:46:56.696Z,5.46
2023-02-22T08:49:25.085Z,5.53
2023-02-22T08:51:53.365Z,5.59
2023-02-22T08:54:22.731Z,5.64
2023-02-22T08:56:51.273Z,5.50
2023-02-22T08:59:19.884Z,5.52
2023-02-22T09:01:49.442Z,5.49
2023-02-22T09:04:20.330Z,5.60
2023-02-22T09:06:52.062Z,5.57
2023-02-22T09:09:21.611Z,5.63
2023-02-22T09:11:52.984Z,5.59
2023-02-22T09:14:21.678Z,5.64
2023-02-22T09:16:52.085Z,5.72
2023-02-22T09:19:21.787Z,5.95
2023-02-22T09:21:54.847Z,5.91
2023-02-22T09:24:23.050Z,5.79
2023-02-22T09:26:54.658Z,5.86
2023-02-22T09:29:24.532Z,5.69
2023-02-22T09:31:55.901Z,6.04
2023-02-22T09:34:31.657Z,6.03
2023-02-22T09:36:59.913Z,6.18
2023-02-22T09:39:28.162Z,6.30
2023-02-22T09:42:05.174Z,6.37
2023-02-22T09:44:39.619Z,6.35
2023-02-22T09:47:15.756Z,6.39
2023-02-22T09:49:50.713Z,6.32
2023-02-22T09:52:27.455Z,6.25
2023-02-22T09:55:04.853Z,6.38
2023-02-22T09:57:36.945Z,6.27
2023-02-22T10:00:14.230Z,6.42
2023-02-22T10:02:50.777Z,6.45
2023-02-22T10:05:27.631Z,6.31
2023-02-22T10:08:06.210Z,6.53
2023-02-22T10:10:40.784Z,6.57
2023-02-22T10:13:22.291Z,6.60
2023-02-22T10:16:00.184Z,6.68
2023-02-22T10:18:48.385Z,6.42
2023-02-22T10:21:31.116Z,6.46
2023-02-22T10:24:09.376Z,6.47
2023-02-22T10:26:44.579Z,6.62
2023-02-22T10:29:18.901Z,6.70
2023-02-22T10:31:52.247Z,6.61
2023-02-22T10:34:26.881Z,6.55
2023-02-22T10:37:01.048Z,6.67
2023-02-22T10:39:32.593Z,6.84
2023-02-22T10:42:06.281Z,6.74
2023-02-22T10:44:35.366Z,6.74
2023-02-22T10:47:06.700Z,6.73
2023-02-22T10:49:39.903Z,6.96
2023-02-22T10:52:16.059Z,6.90
2023-02-22T10:54:49.766Z,7.02
2023-02-22T10:57:23.145Z,7.14
2023-02-22T10:59:52.664Z,7.18
2023-02-22T11:02:23.971Z,7.17
2023-02-22T11:04:56.660Z,7.26
2023-02-22T11:07:27.680Z,7.16
2023-02-22T11:09:58.256Z,7.30
2023-02-22T11:12:34.610Z,7.41
2023-02-22T11:15:29.666Z,7.50
2023-02-22T11:18:02.129Z,7.69
2023-02-22T11:20:38.607Z,7.57
2023-02-22T11:23:08.513Z,7.55
2023-02-22T11:25:39.855Z,7.60
2023-02-22T11:28:11.038Z,7.59
2023-02-22T11:30:40.134Z,7.67
2023-02-22T11:33:23.756Z,7.75
2023-02-22T11:35:56.251Z,7.63
2023-02-22T11:38:26.303Z,7.76
2023-02-22T11:41:17.119Z,7.62
2023-02-22T11:43:48.519Z,7.66
2023-02-22T11:46:22.873Z,7.69
2023-02-22T11:49:00.585Z,7.86
2023-02-22T11:51:45.072Z,7.84
2023-02-22T11:54:29.220Z,7.83
2023-02-22T11:57:10.664Z,7.95
2023-02-22T11:59:48.815Z,7.80
2023-02-22T12:02:57.379Z,8.03
2023-02-22T12:05:38.219Z,8.09
2023-02-22T12:08:20.587Z,8.09
2023-02-22T12:11:10.722Z,8.11
2023-02-22T12:13:56.037Z,7.98
2023-02-22T12:16:38.195Z,8.21
2023-02-22T12:19:17.454Z,8.29
2023-02-22T12:21:52.158Z,8.06
2023-02-22T12:24:25.273Z,8.22
2023-02-22T12:27:01.549Z,8.27
2023-02-22T12:29:37.665Z,8.30
2023-02-22T12:32:11.736Z,8.13
2023-02-22T12:34:44.999Z,8.16
2023-02-22T12:37:20.553Z,8.44
2023-02-22T12:40:00.130Z,8.56
2023-02-22T12:42:46.530Z,8.64
2023-02-22T12:45:23.927Z,8.41
2023-02-22T12:48:01.285Z,8.31
2023-02-22T12:50:34.615Z,8.29
2023-02-22T12:53:15.284Z,8.15
2023-02-22T12:55:51.792Z,8.40
2023-02-22T12:58:26.065Z,8.44
2023-02-22T13:01:02.387Z,8.44
2023-02-22T13:03:37.959Z,8.57
2023-02-22T13:06:29.293Z,8.49
2023-02-22T13:09:10.118Z,8.59
2023-02-22T13:11:45.050Z,8.52
2023-02-22T13:14:26.072Z,8.53
2023-02-22T13:17:02.563Z,8.66
2023-02-22T13:19:41.521Z,8.53
2023-02-22T13:22:17.975Z,8.67
2023-02-22T13:24:59.823Z,8.72
2023-02-22T13:27:36.286Z,8.41
2023-02-22T13:30:07.362Z,8.21
2023-02-22T13:32:52.224Z,8.25
2023-02-22T13:35:40.707Z,8.08
2023-02-22T13:38:35.335Z,8.18
2023-02-22T13:41:23.042Z,8.24
2023-02-22T13:44:22.085Z,8.18
2023-02-22T13:47:20.642Z,8.26
2023-02-22T13:50:26.611Z,8.16
2023-02-22T13:52:57.821Z,8.05
2023-02-22T13:55:31.495Z,8.17
2023-02-22T13:58:04.333Z,8.21
2023-02-22T14:00:46.688Z,8.26
2023-02-22T14:03:42.055Z,8.15
2023-02-22T14:06:12.654Z,8.31
2023-02-22T14:08:47.806Z,8.45
2023-02-22T14:15:30.922Z,8.00
2023-02-22T14:18:02.913Z,7.98
2023-02-22T14:20:35.135Z,8.24
2023-02-22T14:23:36.444Z,8.10
2023-02-22T14:26:17.765Z,8.15
2023-02-22T14:28:59.031Z,8.18
2023-02-22T14:31:36.502Z,8.16
2023-02-22T14:34:24.012Z,8.07
2023-02-22T14:37:17.923Z,7.81
2023-02-22T14:39:51.250Z,7.98
2023-02-22T14:42:25.331Z,7.91
2023-02-22T14:45:01.015Z,8.06
2023-02-22T14:47:33.496Z,8.00
2023-02-22T14:50:06.660Z,8.02
2023-02-22T14:52:39.074Z,8.16
2023-02-22T14:55:19.112Z,8.11
2023-02-22T14:57:57.010Z,8.16
2023-02-22T15:00:31.836Z,8.15
2023-02-22T15:03:05.082Z,7.97
2023-02-22T15:05:39.707Z,8.05
2023-02-22T15:08:10.757Z,8.17
2023-02-22T15:10:44.282Z,8.18
2023-02-22T15:13:19.548Z,7.96
2023-02-22T15:15:50.074Z,8.08
2023-02-22T15:18:27.274Z,8.03
2023-02-22T15:21:00.647Z,7.97
2023-02-22T15:23:33.667Z,7.92
2023-02-22T15:26:03.391Z,7.93
2023-02-22T15:28:32.600Z,8.19
2023-02-22T15:31:19.382Z,7.76
2023-02-22T15:33:47.633Z,7.91
2023-02-22T15:36:20.548Z,7.84
2023-02-22T15:38:50.500Z,7.94
2023-02-22T15:41:28.092Z,7.83
2023-02-22T15:44:17.804Z,7.88
2023-02-22T15:46:54.797Z,7.69
2023-02-22T15:49:24.618Z,7.87
2023-02-22T15:52:10.703Z,7.84
2023-02-22T15:54:44.841Z,7.73
2023-02-22T15:57:17.472Z,7.82
2023-02-22T15:59:49.368Z,7.77
2023-02-22T16:02:33.016Z,7.84
2023-02-22T16:05:05.437Z,7.87
2023-02-22T16:07:40.992Z,7.72
2023-02-22T16:10:21.146Z,7.73
2023-02-22T16:12:54.515Z,7.75
2023-02-22T16:15:22.789Z,7.67
2023-02-22T16:18:01.972Z,7.72
2023-02-22T16:20:36.686Z,7.86
2023-02-22T16:23:28.349Z,7.86
2023-02-22T16:26:10.825Z,7.74
2023-02-22T16:28:52.011Z,7.67
2023-02-22T16:31:25.488Z,7.41
2023-02-22T16:33:56.467Z,7.65
2023-02-22T16:36:38.275Z,7.72
2023-02-22T16:39:10.123Z,7.59
2023-02-22T16:41:38.219Z,7.67
2023-02-22T16:44:08.106Z,7.57
2023-02-22T16:46:38.383Z,7.63
2023-02-22T16:49:10.381Z,7.78
2023-02-22T16:51:47.305Z,7.72
2023-02-22T16:54:25.609Z,7.62
2023-02-22T16:56:54.842Z,7.60
2023-02-22T16:59:23.577Z,7.60
2023-02-22T17:01:51.865Z,7.68
2023-02-22T17:04:25.919Z,7.60
2023-02-22T17:06:59.374Z,7.46
2023-02-22T17:09:30.890Z,7.05
2023-02-22T17:11:59.429Z,7.49
2023-02-22T17:14:37.372Z,7.53
2023-02-22T17:17:08.229Z,7.57
2023-02-22T17:19:37.694Z,7.49
2023-02-22T17:22:09.478Z,7.52
2023-02-22T17:24:39.329Z,7.59
2023-02-22T17:27:11.129Z,7.54
2023-02-22T17:29:42.228Z,7.59
2023-02-22T17:32:17.692Z,7.44
2023-02-22T17:34:45.883Z,7.56
2023-02-22T17:37:14.199Z,7.44
2023-02-22T17:39:43.988Z,7.23
2023-02-22T17:42:15.630Z,7.26
2023-02-22T17:44:43.782Z,7.47
2023-02-22T17:47:14.817Z,7.44
2023-02-22T17:49:44.402Z,7.40
2023-02-22T17:52:15.840Z,7.58
2023-02-22T17:54:46.653Z,7.40
2023-02-22T17:57:16.771Z,7.49
2023-02-22T17:59:47.267Z,7.59
2023-02-22T18:02:15.595Z,7.61
2023-02-22T18:04:44.396Z,7.61
2023-02-22T18:07:16.800Z,7.58
2023-02-22T18:09:46.390Z,7.47
2023-02-22T18:12:14.923Z,7.54
2023-02-22T18:14:43.824Z,7.19
2023-02-22T18:17:12.198Z,7.48
2023-02-22T18:19:42.375Z,7.50
2023-02-22T18:22:10.678Z,7.45
2023-02-22T18:24:43.310Z,7.38
2023-02-22T18:27:15.506Z,7.13
2023-02-22T18:29:47.505Z,7.29
2023-02-22T18:32:15.833Z,7.41
2023-02-22T18:34:45.676Z,7.50
2023-02-22T18:37:14.240Z,7.21
2023-02-22T18:39:43.673Z,7.28
2023-02-22T18:42:15.293Z,7.27
2023-02-22T18:44:46.488Z,7.31
2023-02-22T18:47:15.040Z,7.26
2023-02-22T18:49:43.895Z,7.35
2023-02-22T18:52:12.360Z,7.18
2023-02-22T18:54:45.278Z,7.37
2023-02-22T18:57:15.589Z,7.37
2023-02-22T18:59:44.933Z,7.37
2023-02-22T19:02:14.942Z,7.37
2023-02-22T19:04:44.213Z,7.35
2023-02-22T19:07:17.845Z,7.17
2023-02-22T19:09:51.186Z,7.24
2023-02-22T19:12:21.097Z,7.11
2023-02-22T19:14:50.069Z,7.12
2023-02-22T19:17:21.599Z,6.77
2023-02-22T19:19:50.600Z,7.25
2023-02-22T19:22:18.909Z,7.26
2023-02-22T19:24:47.670Z,7.25
2023-02-22T19:27:16.377Z,7.24
2023-02-22T19:29:47.178Z,7.00
2023-02-22T19:32:17.782Z,7.47
2023-02-22T19:34:47.842Z,7.04
2023-02-22T19:37:18.859Z,6.92
2023-02-22T19:39:49.412Z,7.05
2023-02-22T19:42:17.927Z,7.18
2023-02-22T19:44:48.844Z,6.77
2023-02-22T19:47:17.660Z,7.29
2023-02-22T19:49:48.618Z,7.03
2023-02-22T19:52:18.675Z,6.63
2023-02-22T19:54:50.868Z,6.93
2023-02-22T19:57:25.102Z,7.16
2023-02-22T19:59:56.195Z,7.18
2023-02-22T20:02:27.757Z,7.10
2023-02-22T20:04:59.194Z,6.98
2023-02-22T20:07:39.982Z,7.13
2023-02-22T20:10:11.244Z,7.10
2023-02-22T20:12:42.877Z,6.76
2023-02-22T20:15:15.589Z,7.12
2023-02-22T20:17:54.610Z,7.13
2023-02-22T20:20:30.270Z,7.08
2023-02-22T20:23:01.957Z,7.29
2023-02-22T20:25:30.251Z,7.25
2023-02-22T20:28:00.814Z,7.01
2023-02-22T20:30:36.564Z,7.07
2023-02-22T20:33:05.297Z,7.00
2023-02-22T20:35:34.587Z,7.08
2023-02-22T20:38:06.005Z,6.83
2023-02-22T20:40:37.784Z,7.13
2023-02-22T20:43:08.749Z,6.86
2023-02-22T20:45:41.318Z,6.95
2023-02-22T20:48:09.889Z,6.82
2023-02-22T20:50:41.504Z,5.95
2023-02-22T20:53:12.281Z,6.34
2023-02-22T20:55:52.100Z,6.50
2023-02-22T20:58:23.347Z,7.07
2023-02-22T21:00:55.689Z,7.22
2023-02-22T21:03:23.919Z,7.09
2023-02-22T21:05:54.785Z,7.17
2023-02-22T21:08:23.577Z,6.69
2023-02-22T21:10:52.482Z,6.91
2023-02-22T21:13:23.408Z,6.85
2023-02-22T21:15:53.373Z,7.33
2023-02-22T21:18:25.724Z,6.79
2023-02-22T21:20:56.217Z,7.07
2023-02-22T21:23:24.830Z,6.97
2023-02-22T21:25:59.375Z,6.89
2023-02-22T21:28:50.426Z,7.10
2023-02-22T21:31:28.716Z,7.04
2023-02-22T21:34:04.357Z,7.13
2023-02-22T21:36:35.370Z,7.15
2023-02-22T21:39:08.592Z,6.95
2023-02-22T21:41:40.955Z,7.15
2023-02-22T21:44:13.621Z,7.12
2023-02-22T21:46:48.880Z,6.72
2023-02-22T21:49:22.842Z,7.14
2023-02-22T21:51:54.192Z,7.14
2023-02-22T21:54:23.098Z,7.01
2023-02-22T21:56:54.644Z,6.95
2023-02-22T21:59:23.981Z,7.10
2023-02-22T22:01:57.313Z,6.92
2023-02-22T22:04:29.773Z,6.98
2023-02-22T22:07:02.662Z,6.51
2023-02-22T22:09:36.020Z,6.93
2023-02-22T22:12:06.347Z,6.93
2023-02-22T22:14:36.135Z,7.02
2023-02-22T22:17:09.548Z,7.05
2023-02-22T22:19:40.601Z,7.08
2023-02-22T22:22:09.072Z,6.97
2023-02-22T22:24:42.246Z,6.79
2023-02-22T22:27:12.990Z,6.71
2023-02-22T22:29:44.948Z,6.55
2023-02-22T22:32:23.648Z,6.04
2023-02-22T22:34:56.657Z,6.63
2023-02-22T22:37:28.129Z,6.27
2023-02-22T22:39:56.769Z,6.73
2023-02-22T22:42:25.799Z,6.39
2023-02-22T22:44:57.220Z,6.64
2023-02-22T22:47:27.110Z,6.64
2023-02-22T22:50:01.810Z,6.65
2023-02-22T22:52:37.018Z,6.72
2023-02-22T22:55:11.998Z,6.67
2023-02-22T22:57:44.184Z,6.51
2023-02-22T23:00:39.032Z,6.48
2023-02-22T23:03:17.010Z,6.48
2023-02-22T23:05:46.384Z,6.45
2023-02-22T23:08:14.599Z,6.43
2023-02-22T23:10:43.403Z,6.59
2023-02-22T23:13:17.074Z,6.63
2023-02-22T23:15:56.711Z,6.60
2023-02-22T23:18:26.456Z,6.64
2023-02-22T23:21:08.820Z,6.65
2023-02-22T23:23:41.637Z,6.60
2023-02-22T23:26:18.597Z,6.61
2023-02-22T23:28:48.787Z,6.68
2023-02-22T23:31:19.383Z,6.25
2023-02-22T23:33:53.346Z,6.72
2023-02-22T23:36:21.934Z,6.47
2023-02-22T23:38:54.425Z,6.52
2023-02-22T23:41:27.587Z,6.73
2023-02-22T23:43:55.999Z,6.66
2023-02-22T23:46:27.203Z,6.61
2023-02-22T23:49:02.138Z,6.49
2023-02-22T23:51:39.533Z,6.69
2023-02-22T23:54:09.237Z,6.69
2023-02-22T23:56:46.360Z,6.41
2023-02-22T23:59:18.045Z,6.56
